createdAt,value
2023-03-13T00:01:33.315Z,3.56
2023-03-13T00:04:00.586Z,3.61
2023-03-13T00:06:32.384Z,3.50
2023-03-13T00:09:02.637Z,3.62
2023-03-13T00:11:29.980Z,3.91
2023-03-13T00:13:58.776Z,3.92
2023-03-13T00:16:26.202Z,3.70
2023-03-13T00:18:55.017Z,3.66
2023-03-13T00:21:24.752Z,4.02
2023-03-13T00:23:52.003Z,4.20
2023-03-13T00:26:21.543Z,4.27
2023-03-13T00:28:50.990Z,4.17
2023-03-13T00:31:21.295Z,4.04
2023-03-13T00:33:53.632Z,3.79
2023-03-13T00:36:24.906Z,3.86
2023-03-13T00:38:53.626Z,3.62
2023-03-13T00:41:26.300Z,3.70
2023-03-13T00:43:53.740Z,3.51
2023-03-13T00:46:23.234Z,3.15
2023-03-13T00:48:51.045Z,2.41
2023-03-13T00:51:20.139Z,2.59
2023-03-13T00:53:49.002Z,2.45
2023-03-13T00:56:18.695Z,2.69
2023-03-13T00:58:47.207Z,2.91
2023-03-13T01:01:21.090Z,2.93
2023-03-13T01:03:51.426Z,3.13
2023-03-13T01:06:21.145Z,2.99
2023-03-13T01:08:48.860Z,3.25
2023-03-13T01:11:18.570Z,2.88
2023-03-13T01:13:46.319Z,3.08
2023-03-13T01:16:15.895Z,3.19
2023-03-13T01:18:46.191Z,3.19
2023-03-13T01:21:14.447Z,3.38
2023-03-13T01:23:41.437Z,3.24
2023-03-13T01:26:10.364Z,3.14
2023-03-13T01:28:38.507Z,2.99
2023-03-13T01:31:20.418Z,2.41
2023-03-13T01:33:49.980Z,2.57
2023-03-13T01:36:19.108Z,2.77
2023-03-13T01:38:55.267Z,2.89
2023-03-13T01:41:22.988Z,2.50
2023-03-13T01:43:50.994Z,2.57
2023-03-13T01:46:24.849Z,2.80
2023-03-13T01:49:23.791Z,2.80
2023-03-13T01:52:03.989Z,2.52
2023-03-13T01:54:59.341Z,2.71
2023-03-13T01:57:51.093Z,2.75
2023-03-13T02:00:25.649Z,2.87
2023-03-13T02:02:56.190Z,2.86
2023-03-13T02:05:26.728Z,2.70
2023-03-13T02:08:04.856Z,2.75
2023-03-13T02:10:35.194Z,3.01
2023-03-13T02:13:03.210Z,2.78
2023-03-13T02:15:31.494Z,2.73
2023-03-13T02:17:58.598Z,2.65
2023-03-13T02:20:25.696Z,2.51
2023-03-13T02:22:58.645Z,2.20
2023-03-13T02:25:25.666Z,2.00
2023-03-13T02:28:07.143Z,1.98
2023-03-13T02:30:36.787Z,2.24
2023-03-13T02:33:04.770Z,2.58
2023-03-13T02:35:33.216Z,2.84
2023-03-13T02:38:06.414Z,2.96
2023-03-13T02:40:37.635Z,3.00
2023-03-13T02:43:31.112Z,2.47
2023-03-13T02:46:15.753Z,2.01
2023-03-13T02:48:48.839Z,1.99
2023-03-13T02:51:27.850Z,1.71
2023-03-13T02:54:00.814Z,1.38
2023-03-13T02:56:31.931Z,1.61
2023-03-13T02:58:59.043Z,1.82
2023-03-13T03:01:27.011Z,1.99
2023-03-13T03:03:54.198Z,2.05
2023-03-13T03:06:21.627Z,2.06
2023-03-13T03:08:49.680Z,2.04
2023-03-13T03:11:16.843Z,2.16
2023-03-13T03:13:46.779Z,2.14
2023-03-13T03:16:18.836Z,1.98
2023-03-13T03:18:45.918Z,2.18
2023-03-13T03:21:13.423Z,2.18
2023-03-13T03:23:40.372Z,2.36
2023-03-13T03:26:08.959Z,2.34
2023-03-13T03:28:36.161Z,1.86
2023-03-13T03:31:11.022Z,1.54
2023-03-13T03:33:39.567Z,1.46
2023-03-13T03:36:19.452Z,1.47
2023-03-13T03:38:47.714Z,1.53
2023-03-13T03:41:19.405Z,1.60
2023-03-13T03:43:47.595Z,1.83
2023-03-13T03:46:17.827Z,1.87
2023-03-13T03:48:45.105Z,2.02
2023-03-13T03:51:13.650Z,1.81
2023-03-13T03:53:43.152Z,1.75
2023-03-13T03:56:10.236Z,1.89
2023-03-13T03:58:42.790Z,1.88
2023-03-13T04:01:36.097Z,1.88
2023-03-13T04:04:04.541Z,1.90
2023-03-13T04:06:31.673Z,2.03
2023-03-13T04:08:59.438Z,2.14
2023-03-13T04:11:29.033Z,1.95
2023-03-13T04:13:56.654Z,1.98
2023-03-13T04:16:24.235Z,2.01
2023-03-13T04:18:53.482Z,1.98
2023-03-13T04:21:20.992Z,1.95
2023-03-13T04:23:52.689Z,1.79
2023-03-13T04:26:20.567Z,1.91
2023-03-13T04:28:50.676Z,2.19
2023-03-13T04:31:23.742Z,2.38
2023-03-13T04:34:06.109Z,2.43
2023-03-13T04:36:53.502Z,2.87
2023-03-13T04:39:25.398Z,3.06
2023-03-13T04:42:31.195Z,3.26
2023-03-13T04:44:58.147Z,3.76
2023-03-13T04:47:38.574Z,4.81
2023-03-13T04:50:27.866Z,6.04
2023-03-13T04:53:11.218Z,7.54
2023-03-13T04:56:04.953Z,9.64
2023-03-13T04:58:32.181Z,10.08
2023-03-13T05:01:28.186Z,8.97
2023-03-13T05:04:01.016Z,7.59
2023-03-13T05:06:45.654Z,9.31
2023-03-13T05:09:30.893Z,11.48
2023-03-13T05:12:16.384Z,11.43
2023-03-13T05:15:01.043Z,12.15
2023-03-13T05:17:48.253Z,12.07
2023-03-13T05:20:27.364Z,9.86
2023-03-13T05:23:13.158Z,12.86
2023-03-13T05:25:46.239Z,14.27
2023-03-13T05:28:16.283Z,15.10
2023-03-13T05:30:46.473Z,15.94
2023-03-13T05:33:25.392Z,15.06
2023-03-13T05:36:15.399Z,14.68
2023-03-13T05:38:49.844Z,15.24
2023-03-13T05:41:33.662Z,14.59
2023-03-13T05:44:00.590Z,16.72
2023-03-13T05:46:50.666Z,18.10
2023-03-13T05:49:36.333Z,18.12
2023-03-13T05:52:21.986Z,18.75
2023-03-13T05:54:59.361Z,19.94
2023-03-13T05:57:45.824Z,19.73
2023-03-13T06:00:46.008Z,20.00
2023-03-13T06:03:37.226Z,19.85
2023-03-13T06:06:04.759Z,21.25
2023-03-13T06:08:37.152Z,21.20
2023-03-13T06:11:04.250Z,21.07
2023-03-13T06:13:33.298Z,20.86
2023-03-13T06:16:06.379Z,21.66
2023-03-13T06:18:43.673Z,21.79
2023-03-13T06:21:10.958Z,22.62
2023-03-13T06:23:38.064Z,20.54
2023-03-13T06:26:05.521Z,19.74
2023-03-13T06:28:32.534Z,20.49
2023-03-13T06:31:04.460Z,21.60
2023-03-13T06:33:31.565Z,18.97
2023-03-13T06:36:00.725Z,19.24
2023-03-13T06:38:28.635Z,18.26
2023-03-13T06:40:56.112Z,18.23
2023-03-13T06:43:23.174Z,18.25
2023-03-13T06:45:50.675Z,19.70
2023-03-13T06:48:18.154Z,19.79
2023-03-13T06:50:45.530Z,20.77
2023-03-13T06:53:20.568Z,20.57
2023-03-13T06:55:49.172Z,20.14
2023-03-13T06:58:30.902Z,19.03
2023-03-13T07:01:00.109Z,17.91
2023-03-13T07:03:27.209Z,19.06
2023-03-13T07:05:57.697Z,22.35
2023-03-13T07:08:25.894Z,24.08
2023-03-13T07:10:54.053Z,25.71
2023-03-13T07:13:22.341Z,23.55
2023-03-13T07:15:49.811Z,24.66
2023-03-13T07:18:16.883Z,24.18
2023-03-13T07:20:44.543Z,24.94
2023-03-13T07:23:13.022Z,25.71
2023-03-13T07:25:40.059Z,27.01
2023-03-13T07:28:07.070Z,25.78
2023-03-13T07:30:34.069Z,27.36
2023-03-13T07:33:01.131Z,27.22
2023-03-13T07:35:28.231Z,27.78
2023-03-13T07:37:55.244Z,22.83
2023-03-13T07:40:22.211Z,21.51
2023-03-13T07:42:49.270Z,17.64
2023-03-13T07:45:16.349Z,18.01
2023-03-13T07:47:43.370Z,17.94
2023-03-13T07:50:11.053Z,16.27
2023-03-13T07:52:38.219Z,15.79
2023-03-13T07:55:05.598Z,15.72
2023-03-13T07:57:32.591Z,15.00
2023-03-13T07:59:59.601Z,16.02
2023-03-13T08:02:26.635Z,17.42
2023-03-13T08:04:53.965Z,17.38
2023-03-13T08:07:20.918Z,17.65
2023-03-13T08:09:47.972Z,16.82
2023-03-13T08:12:15.016Z,16.99
2023-03-13T08:14:42.249Z,17.13
2023-03-13T08:17:09.387Z,14.16
2023-03-13T08:19:36.480Z,13.99
2023-03-13T08:22:03.488Z,14.88
2023-03-13T08:24:30.592Z,14.78
2023-03-13T08:26:57.601Z,14.01
2023-03-13T08:29:24.629Z,13.19
2023-03-13T08:31:52.858Z,12.88
2023-03-13T08:34:20.154Z,14.35
2023-03-13T08:36:47.322Z,14.58
2023-03-13T08:39:19.705Z,14.56
2023-03-13T08:41:47.314Z,12.91
2023-03-13T08:44:16.855Z,12.44
2023-03-13T08:46:44.550Z,13.82
2023-03-13T08:49:12.316Z,13.56
2023-03-13T08:51:39.745Z,12.63
2023-03-13T08:54:08.216Z,14.40
2023-03-13T08:56:35.530Z,15.60
2023-03-13T08:59:05.142Z,15.29
2023-03-13T09:01:34.586Z,17.15
2023-03-13T09:04:04.543Z,15.35
2023-03-13T09:06:33.870Z,14.84
2023-03-13T09:09:01.493Z,13.29
2023-03-13T09:11:28.701Z,13.13
2023-03-13T09:13:56.494Z,12.42
2023-03-13T09:16:25.314Z,12.73
2023-03-13T09:18:53.120Z,12.76
2023-03-13T09:21:22.527Z,12.33
2023-03-13T09:23:50.200Z,14.27
2023-03-13T09:26:21.020Z,13.72
2023-03-13T09:28:50.655Z,12.11
2023-03-13T09:31:20.446Z,12.40
2023-03-13T09:33:49.013Z,12.73
2023-03-13T09:36:19.958Z,12.57
2023-03-13T09:38:48.334Z,12.21
2023-03-13T09:41:18.451Z,11.40
2023-03-13T09:43:48.597Z,11.84
2023-03-13T09:46:32.130Z,12.51
2023-03-13T09:49:02.988Z,11.53
2023-03-13T09:51:36.994Z,11.58
2023-03-13T09:54:17.860Z,11.60
2023-03-13T09:56:57.052Z,11.19
2023-03-13T09:59:43.837Z,11.64
2023-03-13T10:02:28.865Z,11.65
2023-03-13T10:05:23.960Z,11.38
2023-03-13T10:07:58.594Z,11.41
2023-03-13T10:10:44.753Z,11.55
2023-03-13T10:13:46.675Z,10.62
2023-03-13T10:16:29.513Z,10.79
2023-03-13T10:19:09.491Z,10.85
2023-03-13T10:21:37.271Z,11.76
2023-03-13T10:24:14.163Z,11.02
2023-03-13T10:26:41.330Z,10.67
2023-03-13T10:29:23.912Z,10.61
2023-03-13T10:32:01.462Z,11.06
2023-03-13T10:35:01.618Z,11.38
2023-03-13T10:37:31.865Z,10.82
2023-03-13T10:40:25.461Z,10.98
2023-03-13T10:43:00.156Z,11.18
2023-03-13T10:45:31.632Z,11.46
2023-03-13T10:48:10.615Z,11.69
2023-03-13T10:50:37.721Z,11.17
2023-03-13T10:53:20.178Z,10.74
2023-03-13T10:55:47.784Z,10.74
2023-03-13T10:58:33.599Z,11.47
2023-03-13T11:01:33.525Z,11.64
2023-03-13T11:04:39.111Z,11.38
2023-03-13T11:07:14.844Z,11.18
2023-03-13T11:09:41.892Z,11.22
2023-03-13T11:12:21.069Z,11.26
2023-03-13T11:14:48.220Z,12.05
2023-03-13T11:17:31.776Z,11.81
2023-03-13T11:20:03.169Z,11.59
2023-03-13T11:22:56.780Z,11.40
2023-03-13T11:25:43.606Z,10.97
2023-03-13T11:28:23.211Z,10.78
2023-03-13T11:31:11.626Z,11.41
2023-03-13T11:33:59.168Z,11.27
2023-03-13T11:36:45.258Z,11.04
2023-03-13T11:39:38.199Z,10.96
2023-03-13T11:42:15.755Z,11.85
2023-03-13T11:45:17.124Z,11.89
2023-03-13T11:47:44.115Z,11.73
2023-03-13T11:50:32.807Z,11.35
2023-03-13T11:53:18.011Z,11.42
2023-03-13T11:56:15.665Z,11.54
2023-03-13T11:58:56.636Z,11.41
2023-03-13T12:01:28.493Z,11.49
2023-03-13T12:04:35.635Z,11.48
2023-03-13T12:07:38.565Z,11.06
2023-03-13T12:10:10.123Z,11.64
2023-03-13T12:12:43.033Z,11.89
2023-03-13T12:15:24.965Z,11.35
2023-03-13T12:17:51.996Z,11.61
2023-03-13T12:20:44.622Z,11.70
2023-03-13T12:23:39.201Z,11.54
2023-03-13T12:26:19.749Z,11.71
2023-03-13T12:29:06.593Z,11.88
2023-03-13T12:31:52.437Z,11.51
2023-03-13T12:34:49.866Z,11.69
2023-03-13T12:38:10.534Z,11.16
2023-03-13T12:41:08.307Z,12.03
2023-03-13T12:43:39.401Z,10.99
2023-03-13T12:46:25.088Z,11.05
2023-03-13T12:49:13.483Z,11.73
2023-03-13T12:51:49.693Z,11.95
2023-03-13T12:54:38.383Z,11.57
2023-03-13T12:57:40.891Z,12.22
2023-03-13T13:00:21.845Z,11.29
2023-03-13T13:03:16.503Z,12.22
2023-03-13T13:06:15.576Z,12.04
2023-03-13T13:09:09.326Z,11.46
2023-03-13T13:11:39.335Z,11.03
2023-03-13T13:14:12.225Z,11.11
2023-03-13T13:16:44.142Z,11.03
2023-03-13T13:19:26.231Z,10.58
2023-03-13T13:22:30.430Z,11.08
2023-03-13T13:24:57.401Z,11.09
2023-03-13T13:27:34.600Z,10.96
2023-03-13T13:30:19.935Z,10.94
2023-03-13T13:32:47.997Z,10.69
2023-03-13T13:35:30.539Z,10.77
2023-03-13T13:38:30.421Z,10.68
2023-03-13T13:41:11.237Z,9.86
2023-03-13T13:43:46.743Z,10.22
2023-03-13T13:46:33.362Z,9.56
2023-03-13T13:49:06.813Z,9.26
2023-03-13T13:51:41.718Z,9.13
2023-03-13T13:54:43.107Z,9.24
2023-03-13T13:57:16.077Z,9.08
2023-03-13T13:59:45.030Z,9.00
2023-03-13T14:02:22.554Z,9.48
2023-03-13T14:04:52.505Z,9.32
2023-03-13T14:08:01.110Z,9.07
2023-03-13T14:10:43.070Z,9.42
2023-03-13T14:13:13.594Z,9.43
2023-03-13T14:15:53.081Z,9.16
2023-03-13T14:18:28.628Z,9.28
2023-03-13T14:21:01.964Z,9.41
2023-03-13T14:23:43.410Z,9.38
2023-03-13T14:26:23.545Z,8.89
2023-03-13T14:28:52.914Z,9.05
2023-03-13T14:31:33.418Z,9.23
2023-03-13T14:34:03.358Z,9.40
2023-03-13T14:36:30.597Z,9.65
2023-03-13T14:39:00.140Z,9.28
2023-03-13T14:41:42.522Z,9.28
2023-03-13T14:44:24.851Z,9.25
2023-03-13T14:46:58.312Z,9.32
2023-03-13T14:49:29.787Z,9.21
2023-03-13T14:52:02.220Z,9.31
2023-03-13T14:54:53.862Z,8.87
2023-03-13T14:57:27.152Z,8.95
2023-03-13T14:59:56.480Z,8.95
2023-03-13T15:02:27.231Z,8.61
2023-03-13T15:05:33.798Z,8.78
2023-03-13T15:08:00.903Z,8.55
2023-03-13T15:10:40.979Z,8.57
2023-03-13T15:13:20.332Z,8.15
2023-03-13T15:15:47.950Z,8.08
2023-03-13T15:18:27.052Z,8.19
2023-03-13T15:20:56.826Z,8.13
2023-03-13T15:23:24.018Z,7.88
2023-03-13T15:25:51.002Z,7.82
2023-03-13T15:28:23.097Z,7.90
2023-03-13T15:30:52.481Z,7.70
2023-03-13T15:33:21.975Z,7.77
2023-03-13T15:35:50.113Z,7.51
2023-03-13T15:38:20.741Z,7.45
2023-03-13T15:40:48.605Z,7.51
2023-03-13T15:43:16.800Z,7.31
2023-03-13T15:45:45.804Z,7.18
2023-03-13T15:48:17.130Z,7.42
2023-03-13T15:50:44.663Z,7.15
2023-03-13T15:53:32.814Z,6.94
2023-03-13T15:56:01.859Z,7.05
2023-03-13T15:58:30.497Z,6.68
2023-03-13T16:00:58.284Z,6.54
2023-03-13T16:03:29.084Z,6.77
2023-03-13T16:05:57.201Z,6.72
2023-03-13T16:08:35.367Z,6.52
2023-03-13T16:11:04.424Z,6.47
2023-03-13T16:13:31.682Z,6.37
2023-03-13T16:15:58.804Z,6.23
2023-03-13T16:18:26.081Z,6.24
2023-03-13T16:20:53.499Z,6.37
2023-03-13T16:23:20.661Z,6.27
2023-03-13T16:25:48.771Z,6.18
2023-03-13T16:28:16.437Z,6.17
2023-03-13T16:30:44.008Z,5.92
2023-03-13T16:33:11.840Z,6.07
2023-03-13T16:35:39.763Z,6.57
2023-03-13T16:38:08.744Z,6.60
2023-03-13T16:40:36.233Z,6.36
2023-03-13T16:43:03.554Z,6.38
2023-03-13T16:45:30.576Z,6.41
2023-03-13T16:47:57.597Z,6.33
2023-03-13T16:50:28.606Z,6.25
2023-03-13T16:52:55.761Z,6.28
2023-03-13T16:55:28.250Z,6.26
2023-03-13T16:57:59.281Z,6.24
2023-03-13T17:00:29.317Z,6.55
2023-03-13T17:02:57.682Z,6.68
2023-03-13T17:05:26.542Z,6.69
2023-03-13T17:07:53.496Z,6.87
2023-03-13T17:10:25.252Z,6.92
2023-03-13T17:12:52.318Z,7.44
2023-03-13T17:15:20.459Z,6.94
2023-03-13T17:17:52.161Z,6.70
2023-03-13T17:20:23.625Z,6.56
2023-03-13T17:22:50.623Z,6.57
2023-03-13T17:25:18.210Z,6.94
2023-03-13T17:27:47.609Z,7.23
2023-03-13T17:30:24.238Z,7.50
2023-03-13T17:32:51.788Z,7.36
2023-03-13T17:35:20.912Z,7.31
2023-03-13T17:37:49.042Z,7.29
2023-03-13T17:40:19.673Z,7.32
2023-03-13T17:42:47.012Z,7.42
2023-03-13T17:45:14.884Z,7.56
2023-03-13T17:47:42.496Z,7.38
2023-03-13T17:50:17.198Z,7.29
2023-03-13T17:52:44.641Z,7.57
2023-03-13T17:55:12.425Z,7.30
2023-03-13T17:57:40.476Z,7.32
2023-03-13T18:00:20.429Z,7.45
2023-03-13T18:02:47.974Z,7.62
2023-03-13T18:05:15.228Z,7.34
2023-03-13T18:07:43.946Z,7.18
2023-03-13T18:10:19.709Z,7.11
2023-03-13T18:12:47.209Z,7.21
2023-03-13T18:15:14.814Z,7.29
2023-03-13T18:17:41.847Z,6.86
2023-03-13T18:20:35.156Z,6.58
2023-03-13T18:23:02.233Z,6.55
2023-03-13T18:25:30.238Z,6.46
2023-03-13T18:27:57.682Z,6.28
2023-03-13T18:30:26.337Z,6.26
2023-03-13T18:32:54.065Z,6.35
2023-03-13T18:35:21.171Z,6.33
2023-03-13T18:37:49.004Z,6.05
2023-03-13T18:40:25.860Z,6.19
2023-03-13T18:42:53.161Z,6.24
2023-03-13T18:45:23.753Z,6.11
2023-03-13T18:47:51.105Z,6.24
2023-03-13T18:50:29.019Z,6.19
2023-03-13T18:52:58.568Z,5.98
2023-03-13T18:55:28.226Z,5.93
2023-03-13T18:57:56.158Z,5.84
2023-03-13T19:00:26.226Z,6.28
2023-03-13T19:02:53.276Z,6.38
2023-03-13T19:05:20.731Z,5.93
2023-03-13T19:07:47.734Z,5.89
2023-03-13T19:10:27.822Z,6.05
2023-03-13T19:12:56.628Z,5.95
2023-03-13T19:15:27.409Z,6.01
2023-03-13T19:17:56.362Z,5.70
2023-03-13T19:20:23.970Z,5.84
2023-03-13T19:22:51.158Z,5.91
2023-03-13T19:25:18.544Z,6.08
2023-03-13T19:27:47.786Z,6.06
2023-03-13T19:30:25.693Z,5.99
2023-03-13T19:32:52.837Z,5.98
2023-03-13T19:35:22.046Z,6.06
2023-03-13T19:37:49.660Z,6.27
2023-03-13T19:40:23.562Z,6.15
2023-03-13T19:42:50.581Z,6.01
2023-03-13T19:45:19.092Z,5.93
2023-03-13T19:47:46.189Z,5.89
2023-03-13T19:50:17.675Z,5.83
2023-03-13T19:52:45.614Z,6.12
2023-03-13T19:55:13.017Z,6.18
2023-03-13T19:57:39.990Z,6.24
2023-03-13T20:00:10.976Z,6.33
2023-03-13T20:02:39.181Z,6.24
2023-03-13T20:05:08.432Z,5.97
2023-03-13T20:07:36.089Z,5.67
2023-03-13T20:10:04.617Z,5.88
2023-03-13T20:12:31.819Z,5.18
2023-03-13T20:14:58.778Z,5.45
2023-03-13T20:17:26.077Z,5.49
2023-03-13T20:19:53.038Z,5.42
2023-03-13T20:22:20.091Z,5.23
2023-03-13T20:24:47.075Z,5.27
2023-03-13T20:27:14.942Z,5.27
2023-03-13T20:29:42.013Z,5.01
2023-03-13T20:32:09.010Z,4.91
2023-03-13T20:34:36.181Z,4.66
2023-03-13T20:37:04.039Z,4.57
2023-03-13T20:39:31.536Z,4.81
2023-03-13T20:42:02.592Z,4.94
2023-03-13T20:44:30.304Z,4.98
2023-03-13T20:46:57.282Z,5.20
2023-03-13T20:49:24.349Z,5.40
2023-03-13T20:51:51.392Z,5.57
2023-03-13T20:54:18.622Z,5.41
2023-03-13T20:56:45.598Z,5.28
2023-03-13T20:59:12.576Z,5.04
2023-03-13T21:01:39.706Z,5.05
2023-03-13T21:04:06.785Z,4.94
2023-03-13T21:06:34.258Z,5.14
2023-03-13T21:09:01.182Z,4.98
2023-03-13T21:11:28.248Z,5.02
2023-03-13T21:13:55.186Z,5.19
2023-03-13T21:16:22.993Z,5.34
2023-03-13T21:18:50.124Z,5.36
2023-03-13T21:21:19.664Z,5.15
2023-03-13T21:23:47.247Z,4.90
2023-03-13T21:26:14.981Z,4.92
2023-03-13T21:28:42.194Z,5.07
2023-03-13T21:31:17.453Z,5.25
2023-03-13T21:33:45.872Z,5.22
2023-03-13T21:36:14.812Z,4.44
2023-03-13T21:38:42.353Z,4.38
2023-03-13T21:41:17.194Z,4.23
2023-03-13T21:43:44.811Z,4.42
2023-03-13T21:46:17.388Z,4.32
2023-03-13T21:51:17.802Z,4.13
2023-03-13T21:53:44.876Z,4.06
2023-03-13T21:56:15.438Z,3.82
2023-03-13T21:58:43.955Z,4.11
2023-03-13T22:01:12.255Z,3.90
2023-03-13T22:03:39.400Z,3.51
2023-03-13T22:06:20.486Z,3.62
2023-03-13T22:08:49.393Z,3.93
2023-03-13T22:11:16.444Z,3.95
2023-03-13T22:13:44.034Z,3.88
2023-03-13T22:16:11.828Z,3.94
2023-03-13T22:18:39.752Z,3.70
2023-03-13T22:21:06.946Z,3.66
2023-03-13T22:23:34.124Z,3.81
2023-03-13T22:26:01.164Z,3.84
2023-03-13T22:28:28.370Z,3.71
2023-03-13T22:30:55.512Z,3.85
2023-03-13T22:33:22.498Z,3.70
2023-03-13T22:35:52.681Z,3.35
2023-03-13T22:38:20.742Z,3.37
2023-03-13T22:40:49.034Z,3.37
2023-03-13T22:43:16.112Z,3.45
2023-03-13T22:45:43.048Z,3.65
2023-03-13T22:48:09.993Z,3.53
2023-03-13T22:50:36.982Z,3.68
2023-03-13T22:53:03.968Z,3.59
2023-03-13T22:55:33.367Z,3.74
2023-03-13T22:58:00.966Z,3.76
2023-03-13T23:00:28.058Z,3.55
2023-03-13T23:02:55.102Z,3.52
2023-03-13T23:05:22.274Z,3.61
2023-03-13T23:07:50.898Z,3.62
2023-03-13T23:10:18.775Z,3.73
2023-03-13T23:12:45.768Z,3.82
2023-03-13T23:15:12.929Z,3.28
2023-03-13T23:17:39.944Z,3.15
2023-03-13T23:20:13.763Z,3.07
2023-03-13T23:22:46.335Z,3.19
2023-03-13T23:25:14.222Z,3.02
2023-03-13T23:27:42.263Z,3.20
2023-03-13T23:30:13.634Z,3.10
2023-03-13T23:32:43.681Z,2.99
2023-03-13T23:35:11.901Z,2.96
2023-03-13T23:37:39.709Z,3.01
2023-03-13T23:40:09.078Z,2.97
2023-03-13T23:42:36.603Z,2.92
2023-03-13T23:45:05.641Z,3.02
2023-03-13T23:47:33.518Z,3.25
2023-03-13T23:50:00.762Z,3.36
2023-03-13T23:52:27.828Z,3.14
2023-03-13T23:54:54.818Z,3.28
2023-03-13T23:57:21.832Z,3.35
2023-03-13T23:59:49.329Z,3.42
